Ευχαριστούμε που συμβάλλετε στη διατήρηση της σελίδας μας.

Thank you for your donations, it really helps to maintain the page.


Στατιστικά Καιρού & Άλλα..









Δείκτης Πυρκαγιάς (FWI)

Καστελόκαμπος Ρίον more information Kastelokampos Rion


Κάμερα Ρομανού more information Romanos Cam


προειδοποίηση για Καταιγίδες more information blitzortung!


Ραντάρ Βροχής more information rain snow radar


Επισκεφθείτε άλλες ιστοσελίδες καιρού μας:

Meteopatras.Eu in
Euweather NetworkMeteopatras.Eu in Euweather Network

Weather CloudWeather Cloud

PWS WeatherPWS Weather

Awekas NetWeather data from station Patra-Ketx

WunderGroundWeather data from station Patra-Ketx



Καταιγίδες Από : 25-06-2019 11:00 Μέχρι : 20:00 προειδοποίηση για : Καταιγίδες Επίπεδο : Κίτρινο info button

Ιδιοκτησία και Επίβλεψη : Μουλάς Αντρέας

 Πάτρα, Ελλάδα - Γ.Πλάτος : 38°14'21" Β - Γ.Μήκος : 21°45'5" Α - Υψόμετρο : 56μ

Select another period ( hide this area )

Μονάδες Περίοδο Custom range Directly to
Μετρικό Αγγλικό Και τα δύο
Καθημερινά Εβδομαδιαία Μηνιαία Ετήσια
use both date-selectors for a custom range
previous Ημέρα
With this date

WeatherUnderground graphs for this period ( click here )


Καθημερινά Περίληψη για Τρίτη 25 Ιούνιος 2019
Ώρα Temp. ( °C ) Dew pt. ( °C ) Άνεμος ( km/h ) απο Ριπή ( km/h ) Πίεση ( hPa ) Humid.( % ) Rainrate ( cm ) Solar ( W/m2 )
Υψηλή33,8 19,8 19,3 ΑΒΑ ( 198/1110 ) 31,5 1012,1 75 - 912
Μέση Τιμή28,4 17,8 5,6 Άπνοια #35/200 9,9 1011,0 55 - 522 #125/200
Χαμηλή23,8 14,6 -   0,0 1010,2 33 -  
Καθημερινά Tabular details for Τρίτη 25 Ιούνιος 2019
Ώρα Temp. ( °C ) Dew pt. ( °C ) Άνεμος ( km/h ) απο Ριπή ( km/h ) Πίεση ( hPa ) Humid.( % ) Rainrate ( cm ) Solar ( W/m2 )
00:04 26,3 19,4 0,2 ΝΝΔ 1,9 1011,3 66 - -
00:09 26,3 19,4   Άπνοια 1,9 1011,3 66 - -
00:14 26,3 19,4 0,8 ΝΝΔ 3,7 1011,2 66 - -
00:19 26,3 19,4 2,9 ΝΔ 5,6 1011,2 66 - -
00:24 26,3 19,4 1,0 ΝΔ 3,7 1011,2 66 - -
00:29 26,3 19,4 3,7 ΝΑ 7,4 1011,1 66 - -
00:34 26,3 19,2 7,1 ΝΝΔ 9,7 1011,1 65 - -
00:39 26,3 19,2 2,3 ΝΔ 5,6 1011,1 65 - -
00:44 26,3 19,4 4,3 ΝΝΔ 5,6 1011,2 66 - -
00:49 26,2 19,6 2,4 ΝΝΔ 5,6 1011,1 67 - -
00:54 26,2 19,6 3,1 ΝΝΔ 5,6 1011,1 67 - -
00:59 26,1 19,4 2,4 ΝΝΔ 4,8 1011,1 67 - -
01:04 26,0 19,6 1,9 Νότος 5,6 1011,0 68 - -
01:09 25,9 19,6 2,3 ΝΝΔ 5,6 1011,0 68 - -
01:14 25,9 19,8 2,4 ΝΝΔ 5,6 1011,0 69 - -
01:19 25,9 19,8 3,5 ΝΝΔ 5,6 1011,0 69 - -
01:24 25,8 19,7 4,8 ΝΝΔ 6,4 1011,0 69 - -
01:29 25,8 19,7 3,2 ΝΝΔ 5,6 1011,0 69 - -
01:34 25,8 19,4 2,9 ΝΝΔ 5,6 1010,9 68 - -
01:39 25,7 19,4 1,8 ΝΝΔ 3,7 1010,9 68 - -
01:44 25,7 19,4 0,8 ΝΝΔ 3,7 1010,9 68 - -
01:49 25,7 19,3   Άπνοια   1011,0 68 - -
01:54 25,6 19,3   Άπνοια   1011,0 68 - -
01:59 25,6 19,2   Άπνοια   1011,0 68 - -
02:04 25,5 19,4   Άπνοια   1010,9 69 - -
02:09 25,5 19,4   Άπνοια 1,6 1010,8 69 - -
02:14 25,4 19,3   Άπνοια 1,9 1010,8 69 - -
02:19 25,4 19,3   Άπνοια   1010,8 69 - -
02:24 25,4 19,3   Άπνοια   1010,7 69 - -
02:29 25,4 19,5   Άπνοια   1010,7 70 - -
02:34 25,3 19,4   Άπνοια   1010,7 70 - -
02:39 25,3 19,4   Άπνοια   1010,7 70 - -
02:44 25,3 19,2   Άπνοια 1,6 1010,7 69 - -
02:49 25,3 19,2 1,8 ΝΝΔ 3,7 1010,6 69 - -
02:54 25,3 19,2   Άπνοια   1010,7 69 - -
02:59 25,3 19,2   Άπνοια   1010,7 69 - -
03:04 25,3 19,4   Άπνοια   1010,8 70 - -
03:09 25,2 19,3 2,9 ΝΝΔ 3,7 1010,8 70 - -
03:14 25,2 19,3 2,6 ΝΝΔ 5,6 1010,8 70 - -
03:19 25,2 19,3   Άπνοια 3,7 1010,8 70 - -
03:24 25,2 19,3   Άπνοια   1010,8 70 - -
03:29 25,1 19,5   Άπνοια   1010,8 71 - -
03:34 25,1 19,4   Άπνοια   1010,8 71 - -
03:39 24,9 19,3   Άπνοια   1010,7 71 - -
03:44 24,8 19,2   Άπνοια   1010,7 71 - -
03:49 24,6 19,2 3,1 ΑΝΑ 5,6 1010,6 72 - -
03:54 24,5 19,3 1,8 ΑΝΑ 3,7 1010,6 73 - -
03:59 24,4 19,3 2,4 ΑΝΑ 3,7 1010,6 73 - -
04:04 24,3 19,1 4,2 ΑΝΑ 5,6 1010,6 73 - -
04:09 24,2 19,2 2,9 ΑΝΑ 3,7 1010,5 74 - -
04:14 24,2 19,2   Άπνοια   1010,5 74 - -
04:19 24,2 19,3   Άπνοια   1010,5 74 - -
04:24 24,2 19,3   Άπνοια   1010,5 74 - -
04:29 24,2 19,3   Άπνοια   1010,5 74 - -
04:34 24,1 19,4 2,7 ΑΝΑ 5,6 1010,3 75 - -
04:39 24,2 19,5 1,9 ΑΝΑ 3,7 1010,3 75 - -
04:44 24,2 19,3 1,8 ΑΝΑ 5,6 1010,3 74 - -
04:49 24,2 19,5 0,6 ΒΔ 5,6 1010,3 75 - -
04:54 24,4 19,4 4,2 ΒΔ 5,6 1010,4 74 - -
04:59 24,4 19,5 4,2 ΒΔ 5,6 1010,4 74 - -
05:04 24,5 19,6 0,2 ΒΔ 3,7 1010,4 74 - -
05:09 24,4 19,5 2,4 ΒΔ 3,7 1010,4 74 - -
05:14 24,4 19,5   Άπνοια   1010,4 74 - -
05:19 24,4 19,7 1,9 ΒΔ 3,2 1010,5 75 - -
05:24 24,4 19,5 2,1 ΒΔ 4,8 1010,4 74 - -
05:29 24,4 19,2 1,4 ΒΔ 3,7 1010,4 73 - -
05:34 24,3 19,3 3,2 ΒΔ 5,6 1010,4 74 - -
05:39 24,2 19,2 3,1 ΒΔ 5,6 1010,3 74 - -
05:44 24,0 19,3   Άπνοια   1010,3 75 - -
05:49 23,9 19,2 3,4 ΒΔ 5,6 1010,2 75 - -
05:54 23,9 19,2 1,6 ΒΔ 5,6 1010,2 75 - -
05:59 23,8 19,1 0,2 ΒΔ 1,6 1010,2 75 - -
06:04 23,9 19,2 3,7 ΒΔ 5,6 1010,2 75 - -
06:09 23,9 18,9   Άπνοια   1010,2 74 - -
06:14 23,9 18,9 2,7 ΒΒΔ 3,7 1010,3 74 - -
06:19 23,8 19,1   Άπνοια   1010,2 75 - 5
06:24 23,8 19,1 2,3 ΒΒΔ 3,7 1010,3 75 - 9
06:29 23,9 19,2 2,9 Βοράς 4,8 1010,4 75 - 12
06:34 23,9 19,2   Άπνοια   1010,2 75 - 16
06:39 23,9 19,2 4,0 Ανατολή 5,6 1010,2 75 - 19
06:44 23,9 19,2 0,2 ΑΝΑ 1,9 1010,3 75 - 25
06:49 24,1 19,1   Άπνοια   1010,3 74 - 26
06:54 24,1 19,2   Άπνοια   1010,3 74 - 30
06:59 24,2 19,3 1,9 ΑΝΑ 3,7 1010,3 74 - 33
07:04 24,3 19,2 1,3 ΑΝΑ 1,9 1010,3 73 - 35
07:09 24,5 19,3 2,6 ΑΝΑ 5,6 1010,3 73 - 39
07:14 24,6 19,4 3,2 Βοράς 5,6 1010,3 73 - 44
07:19 24,8 19,4 5,3 ΔΝΔ 6,4 1010,4 72 - 47
07:24 24,8 19,4 5,5 ΝΑ 7,4 1010,5 72 - 53
07:29 24,9 19,6 2,6 ΝΑ 4,8 1010,4 72 - 56
07:34 25,1 19,5 4,0 ΝΑ 5,6 1010,5 71 - 62
07:39 25,3 19,7 0,5 ΝΑ 3,7 1010,6 71 - 65
07:44 25,3 19,4 6,1 ΒΔ 7,4 1010,5 70 - 70
07:49 25,4 19,1 2,9 ΒΔ 5,6 1010,3 68 - 65
07:54 25,8 19,4 0,3 ΒΔ 1,9 1010,4 68 - 72
07:59 26,2 19,4 2,3 ΒΔ 3,2 1010,4 66 - 88
08:04 26,5 19,4 2,3 ΒΔ 5,6 1010,5 65 - 111
08:09 26,8 18,9 5,8 ΑΝΑ 11,3 1010,5 62 - 148
08:14 26,9 19,0 2,9 ΑΝΑ 11,3 1010,5 62 - 186
08:19 27,1 18,4 5,8 ΝΑ 11,3 1010,6 59 - 216
08:24 27,4 19,0 3,5 ΝΑ 5,6 1010,6 60 - 230
08:29 27,6 19,2 4,7 ΝΔ 5,6 1010,7 60 - 232
08:34 27,7 19,2 2,9 Δύση 5,6 1010,6 60 - 241
08:39 27,7 19,5 3,7 Δύση 6,4 1010,5 61 - 276
08:44 27,8 19,1 5,3 ΝΝΑ 11,1 1010,7 59 - 234
08:49 27,9 19,4 4,7 ΝΝΑ 7,4 1010,7 60 - 79
08:54 27,9 19,7   Άπνοια 3,7 1010,8 61 - 334
08:59 28,1 19,6 0,2 ΝΝΑ 3,7 1010,8 60 - 353
09:04 28,3 19,3 1,4 ΝΝΑ 3,7 1010,8 58 - 93
09:09 28,4 19,3 1,1 ΑΝΑ 3,7 1010,8 58 - 392
09:14 28,7 19,1 3,4 ΑΝΑ 5,6 1010,8 56 - 401
09:19 29,1 19,1   Άπνοια   1010,8 55 - 418
09:24 29,4 19,1 3,5 ΑΝΑ 5,6 1010,9 54 - 429
09:29 29,6 18,1 5,3 ΝΑ 6,4 1010,9 50 - 443
09:34 30,1 16,8 6,0 Ανατολή 14,8 1010,9 45 - 461
09:39 30,4 16,8 5,8 ΒΒΑ 8,0 1010,8 44 - 471
09:44 30,6 17,6 11,7 ΝΑ 14,8 1010,9 46 - 485
09:49 30,6 17,7 6,9 Ανατολή 13,0 1011,1 46 - 494
09:54 30,8 17,1 8,4 ΒΑ 16,7 1011,1 44 - 512
09:59 30,9 17,2 9,0 ΒΑ 14,8 1011,1 44 - 524
10:04 30,9 16,8 5,0 ΒΔ 7,4 1011,0 43 - 529
10:09 31,0 16,9 7,6 ΑΒΑ 13,0 1011,1 43 - 550
10:14 31,2 17,1 5,6 Ανατολή 7,4 1011,1 43 - 557
10:19 31,2 17,1 5,6 Βοράς 16,7 1011,1 43 - 571
10:24 31,2 16,7 8,0 ΒΑ 13,0 1011,1 42 - 587
10:29 31,3 16,4 6,8 ΑΒΑ 18,5 1011,1 41 - 589
10:34 31,4 16,9 9,7 ΑΒΑ 18,5 1011,1 42 - 601
10:39 31,5 16,7 11,6 ΑΒΑ 18,5 1011,2 41 - 617
10:44 31,5 16,3 10,5 ΑΝΑ 12,9 1011,3 40 - 631
10:49 31,6 15,9 6,9 ΑΝΑ 11,1 1011,3 39 - 643
10:54 31,6 15,9 15,4 ΑΒΑ 24,1 1011,2 39 - 652
10:59 31,5 15,9 13,2 ΑΒΑ 20,4 1011,3 39 - 661
11:04 31,5 15,9 14,0 ΑΒΑ 27,8 1011,3 39 - 671
11:09 31,6 15,9 9,3 ΒΑ 18,5 1011,2 39 - 689
11:14 31,8 16,2 7,9 ΝΑ 13,0 1011,2 39 - 691
11:19 31,9 16,2 14,2 Ανατολή 20,4 1011,1 39 - 703
11:24 31,9 16,3 10,8 ΑΝΑ 18,5 1011,2 39 - 705
11:29 32,0 16,3 8,8 ΑΝΑ 16,7 1011,2 39 - 717
11:34 32,1 15,9 6,3 ΝΑ 13,0 1011,3 38 - 724
11:39 32,3 16,2 12,4 ΝΑ 18,5 1011,4 38 - 733
11:44 32,3 15,7 4,5 ΑΝΑ 11,1 1011,4 37 - 745
11:49 32,3 15,8 4,2 Δύση 11,1 1011,4 37 - 747
11:54 32,7 15,7 10,9 ΝΑ 24,1 1011,4 36 - 756
11:59 32,8 15,7 4,0 ΑΒΑ 5,6 1011,4 36 - 766
12:04 32,9 15,4 9,7 Ανατολή 14,8 1011,3 35 - 773
12:09 33,0 15,9 9,7 ΑΝΑ 13,0 1011,3 36 - 789
12:14 33,2 15,7 6,1 ΑΝΑ 9,3 1011,3 35 - 803
12:19 33,1 15,6 7,6 ΑΒΑ 14,8 1011,2 35 - 807
12:24 32,9 15,4 9,5 ΑΝΑ 20,9 1011,4 35 - 816
12:29 32,7 15,7 10,8 ΒΑ 20,4 1011,4 36 - 826
12:34 32,7 15,3 19,3 ΝΝΑ 31,5 1011,5 35 - 835
12:39 32,5 15,5 11,4 ΑΝΑ 24,1 1011,4 36 - 856
12:44 32,7 15,7 11,4 ΑΝΑ 24,1 1011,6 36 - 884
12:49 32,6 16,0 12,9 ΝΑ 16,1 1011,7 37 - 912
12:54 32,3 15,7 10,3 Ανατολή 16,7 1011,7 37 - 202
12:59 32,0 15,1 7,9 ΒΒΑ 14,5 1011,7 36 - 227
13:04 31,8 15,3 9,5 ΔΒΔ 22,2 1011,6 37 - 886
13:09 31,8 15,3 9,5 ΝΝΑ 18,5 1011,7 37 - 183
13:14 31,8 15,3 13,2 ΒΑ 24,1 1011,6 37 - 165
13:19 31,8 15,3 11,3 ΒΒΑ 18,5 1011,5 37 - 884
13:24 32,0 15,1 14,8 ΒΒΑ 25,9 1011,5 36 - 281
13:29 32,0 15,5 13,8 ΒΒΑ 27,8 1011,5 37 - 248
13:34 32,3 15,3 4,2 ΑΝΑ 14,8 1011,7 36 - 165
13:39 32,5 14,6 4,3 ΑΒΑ 6,4 1011,6 34 - 868
13:44 32,8 15,3 11,9 ΒΑ 16,7 1011,7 35 - 847
13:49 32,9 15,9 9,8 Ανατολή 18,5 1011,7 36 - 882
13:54 32,9 15,4 10,6 ΑΒΑ 14,8 1011,8 35 - 865
13:59 33,0 15,9 15,4 Βοράς 29,0 1012,0 36 - 849
14:04 32,8 14,9 13,2 ΒΒΔ 27,8 1012,0 34 - 844
14:09 32,7 15,3 14,6 ΑΒΑ 22,5 1012,0 35 - 844
14:14 32,7 15,7 6,0 ΑΝΑ 7,4 1011,9 36 - 867
14:19 32,7 15,3 11,4 ΑΝΑ 25,9 1012,1 35 - 867
14:24 32,6 15,2 10,8 ΒΑ 14,5 1011,9 35 - 851
14:29 32,7 15,7 13,5 ΑΒΑ 16,7 1012,0 36 - 838
14:34 32,8 15,3 7,7 ΑΒΑ 14,5 1012,0 35 - 835
14:39 32,9 15,4 18,3 ΒΒΑ 19,3 1011,9 35 - 826
14:44 33,1 15,6 12,4 ΒΒΑ 31,5 1012,0 35 - 824
14:49 33,0 15,5 10,3 Ανατολή 24,1 1012,0 35 - 816
14:54 33,2 15,7 10,8 ΒΑ 18,5 1012,1 35 - 810
14:59 33,2 15,7 10,0 ΒΑ 18,5 1012,1 35 - 810
15:04 33,3 15,8 10,0 ΒΒΑ 16,1 1012,0 35 - 812
15:09 33,1 15,6 10,1 ΒΑ 25,9 1011,9 35 - 789
15:14 33,1 16,1 8,4 ΒΒΑ 11,1 1011,9 36 - 795
15:19 33,2 15,2 9,7 ΒΑ 16,7 1011,8 34 - 788
15:24 33,2 16,1 4,2 ΒΒΔ 14,8 1011,8 36 - 775
15:29 33,4 15,4 15,8 Βοράς 24,1 1012,0 34 - 768
15:34 33,2 15,7 12,4 ΑΒΑ 20,4 1012,0 35 - 765
15:39 33,3 15,7 13,5 ΒΒΑ 20,4 1012,0 35 - 751
15:44 33,2 16,1 15,1 ΒΒΑ 27,4 1012,0 36 - 733
15:49 33,2 15,7 12,6 ΑΒΑ 18,5 1012,0 35 - 737
15:54 33,3 15,7 15,3 Ανατολή 20,4 1012,0 35 - 738
15:59 33,2 15,7 10,3 ΒΒΔ 18,5 1011,9 35 - 726
16:04 33,4 15,8 6,9 ΒΒΑ 11,1 1011,9 35 - 719
16:09 33,7 15,6 12,4 ΑΒΑ 22,2 1012,0 34 - 714
16:14 33,6 15,6 15,3 ΒΔ 16,7 1011,9 34 - 715
16:19 33,6 15,6 15,4 ΒΒΑ 22,2 1011,9 34 - 710
16:24 33,6 15,6 7,2 ΑΒΑ 18,5 1011,8 34 - 703
16:29 33,8 15,3 14,0 Βοράς 24,1 1012,0 33 - 703
16:34 33,7 15,7 12,7 Βοράς 22,5 1011,9 34 - 698
16:39 33,8 15,7 12,9 ΑΒΑ 17,7 1011,9 34 - 703
Καθημερινά Περίληψη για Τρίτη 25 Ιούνιος 2019
Ώρα Temp. ( °C ) Dew pt. ( °C ) Άνεμος ( km/h ) απο Ριπή ( km/h ) Πίεση ( hPa ) Humid.( % ) Rainrate ( cm ) Solar ( W/m2 )
Υψηλή33,8 19,8 19,3 ΑΒΑ ( 198/1110 ) 31,5 1012,1 75 - 912
Μέση Τιμή28,4 17,8 5,6 Άπνοια #35/200 9,9 1011,0 55 - 522 #125/200
Χαμηλή23,8 14,6 -   0,0 1010,2 33 -  
Καθημερινά Tabular details for Τρίτη 25 Ιούνιος 2019
Ώρα Temp. ( °C ) Dew pt. ( °C ) Άνεμος ( km/h ) απο Ριπή ( km/h ) Πίεση ( hPa ) Humid.( % ) Rainrate ( cm ) Solar ( W/m2 )
00:04 26,3 19,4 0,2 ΝΝΔ 1,9 1011,3 66 - -
00:09 26,3 19,4   Άπνοια 1,9 1011,3 66 - -
00:14 26,3 19,4 0,8 ΝΝΔ 3,7 1011,2 66 - -
00:19 26,3 19,4 2,9 ΝΔ 5,6 1011,2 66 - -
00:24 26,3 19,4 1,0 ΝΔ 3,7 1011,2 66 - -
00:29 26,3 19,4 3,7 ΝΑ 7,4 1011,1 66 - -
00:34 26,3 19,2 7,1 ΝΝΔ 9,7 1011,1 65 - -
00:39 26,3 19,2 2,3 ΝΔ 5,6 1011,1 65 - -
00:44 26,3 19,4 4,3 ΝΝΔ 5,6 1011,2 66 - -
00:49 26,2 19,6 2,4 ΝΝΔ 5,6 1011,1 67 - -
00:54 26,2 19,6 3,1 ΝΝΔ 5,6 1011,1 67 - -
00:59 26,1 19,4 2,4 ΝΝΔ 4,8 1011,1 67 - -
01:04 26,0 19,6 1,9 Νότος 5,6 1011,0 68 - -
01:09 25,9 19,6 2,3 ΝΝΔ 5,6 1011,0 68 - -
01:14 25,9 19,8 2,4 ΝΝΔ 5,6 1011,0 69 - -
01:19 25,9 19,8 3,5 ΝΝΔ 5,6 1011,0 69 - -
01:24 25,8 19,7 4,8 ΝΝΔ 6,4 1011,0 69 - -
01:29 25,8 19,7 3,2 ΝΝΔ 5,6 1011,0 69 - -
01:34 25,8 19,4 2,9 ΝΝΔ 5,6 1010,9 68 - -
01:39 25,7 19,4 1,8 ΝΝΔ 3,7 1010,9 68 - -
01:44 25,7 19,4 0,8 ΝΝΔ 3,7 1010,9 68 - -
01:49 25,7 19,3   Άπνοια   1011,0 68 - -
01:54 25,6 19,3   Άπνοια   1011,0 68 - -
01:59 25,6 19,2   Άπνοια   1011,0 68 - -
02:04 25,5 19,4   Άπνοια   1010,9 69 - -
02:09 25,5 19,4   Άπνοια 1,6 1010,8 69 - -
02:14 25,4 19,3   Άπνοια 1,9 1010,8 69 - -
02:19 25,4 19,3   Άπνοια   1010,8 69 - -
02:24 25,4 19,3   Άπνοια   1010,7 69 - -
02:29 25,4 19,5   Άπνοια   1010,7 70 - -
02:34 25,3 19,4   Άπνοια   1010,7 70 - -
02:39 25,3 19,4   Άπνοια   1010,7 70 - -
02:44 25,3 19,2   Άπνοια 1,6 1010,7 69 - -
02:49 25,3 19,2 1,8 ΝΝΔ 3,7 1010,6 69 - -
02:54 25,3 19,2   Άπνοια   1010,7 69 - -
02:59 25,3 19,2   Άπνοια   1010,7 69 - -
03:04 25,3 19,4   Άπνοια   1010,8 70 - -
03:09 25,2 19,3 2,9 ΝΝΔ 3,7 1010,8 70 - -
03:14 25,2 19,3 2,6 ΝΝΔ 5,6 1010,8 70 - -
03:19 25,2 19,3   Άπνοια 3,7 1010,8 70 - -
03:24 25,2 19,3   Άπνοια   1010,8 70 - -
03:29 25,1 19,5   Άπνοια   1010,8 71 - -
03:34 25,1 19,4   Άπνοια   1010,8 71 - -
03:39 24,9 19,3   Άπνοια   1010,7 71 - -
03:44 24,8 19,2   Άπνοια   1010,7 71 - -
03:49 24,6 19,2 3,1 ΑΝΑ 5,6 1010,6 72 - -
03:54 24,5 19,3 1,8 ΑΝΑ 3,7 1010,6 73 - -
03:59 24,4 19,3 2,4 ΑΝΑ 3,7 1010,6 73 - -
04:04 24,3 19,1 4,2 ΑΝΑ 5,6 1010,6 73 - -
04:09 24,2 19,2 2,9 ΑΝΑ 3,7 1010,5 74 - -
04:14 24,2 19,2   Άπνοια   1010,5 74 - -
04:19 24,2 19,3   Άπνοια   1010,5 74 - -
04:24 24,2 19,3   Άπνοια   1010,5 74 - -
04:29 24,2 19,3   Άπνοια   1010,5 74 - -
04:34 24,1 19,4 2,7 ΑΝΑ 5,6 1010,3 75 - -
04:39 24,2 19,5 1,9 ΑΝΑ 3,7 1010,3 75 - -
04:44 24,2 19,3 1,8 ΑΝΑ 5,6 1010,3 74 - -
04:49 24,2 19,5 0,6 ΒΔ 5,6 1010,3 75 - -
04:54 24,4 19,4 4,2 ΒΔ 5,6 1010,4 74 - -
04:59 24,4 19,5 4,2 ΒΔ 5,6 1010,4 74 - -
05:04 24,5 19,6 0,2 ΒΔ 3,7 1010,4 74 - -
05:09 24,4 19,5 2,4 ΒΔ 3,7 1010,4 74 - -
05:14 24,4 19,5   Άπνοια   1010,4 74 - -
05:19 24,4 19,7 1,9 ΒΔ 3,2 1010,5 75 - -
05:24 24,4 19,5 2,1 ΒΔ 4,8 1010,4 74 - -
05:29 24,4 19,2 1,4 ΒΔ 3,7 1010,4 73 - -
05:34 24,3 19,3 3,2 ΒΔ 5,6 1010,4 74 - -
05:39 24,2 19,2 3,1 ΒΔ 5,6 1010,3 74 - -
05:44 24,0 19,3   Άπνοια   1010,3 75 - -
05:49 23,9 19,2 3,4 ΒΔ 5,6 1010,2 75 - -
05:54 23,9 19,2 1,6 ΒΔ 5,6 1010,2 75 - -
05:59 23,8 19,1 0,2 ΒΔ 1,6 1010,2 75 - -
06:04 23,9 19,2 3,7 ΒΔ 5,6 1010,2 75 - -
06:09 23,9 18,9   Άπνοια   1010,2 74 - -
06:14 23,9 18,9 2,7 ΒΒΔ 3,7 1010,3 74 - -
06:19 23,8 19,1   Άπνοια   1010,2 75 - 5
06:24 23,8 19,1 2,3 ΒΒΔ 3,7 1010,3 75 - 9
06:29 23,9 19,2 2,9 Βοράς 4,8 1010,4 75 - 12
06:34 23,9 19,2   Άπνοια   1010,2 75 - 16
06:39 23,9 19,2 4,0 Ανατολή 5,6 1010,2 75 - 19
06:44 23,9 19,2 0,2 ΑΝΑ 1,9 1010,3 75 - 25
06:49 24,1 19,1   Άπνοια   1010,3 74 - 26
06:54 24,1 19,2   Άπνοια   1010,3 74 - 30
06:59 24,2 19,3 1,9 ΑΝΑ 3,7 1010,3 74 - 33
07:04 24,3 19,2 1,3 ΑΝΑ 1,9 1010,3 73 - 35
07:09 24,5 19,3 2,6 ΑΝΑ 5,6 1010,3 73 - 39
07:14 24,6 19,4 3,2 Βοράς 5,6 1010,3 73 - 44
07:19 24,8 19,4 5,3 ΔΝΔ 6,4 1010,4 72 - 47
07:24 24,8 19,4 5,5 ΝΑ 7,4 1010,5 72 - 53
07:29 24,9 19,6 2,6 ΝΑ 4,8 1010,4 72 - 56
07:34 25,1 19,5 4,0 ΝΑ 5,6 1010,5 71 - 62
07:39 25,3 19,7 0,5 ΝΑ 3,7 1010,6 71 - 65
07:44 25,3 19,4 6,1 ΒΔ 7,4 1010,5 70 - 70
07:49 25,4 19,1 2,9 ΒΔ 5,6 1010,3 68 - 65
07:54 25,8 19,4 0,3 ΒΔ 1,9 1010,4 68 - 72
07:59 26,2 19,4 2,3 ΒΔ 3,2 1010,4 66 - 88
08:04 26,5 19,4 2,3 ΒΔ 5,6 1010,5 65 - 111
08:09 26,8 18,9 5,8 ΑΝΑ 11,3 1010,5 62 - 148
08:14 26,9 19,0 2,9 ΑΝΑ 11,3 1010,5 62 - 186
08:19 27,1 18,4 5,8 ΝΑ 11,3 1010,6 59 - 216
08:24 27,4 19,0 3,5 ΝΑ 5,6 1010,6 60 - 230
08:29 27,6 19,2 4,7 ΝΔ 5,6 1010,7 60 - 232
08:34 27,7 19,2 2,9 Δύση 5,6 1010,6 60 - 241
08:39 27,7 19,5 3,7 Δύση 6,4 1010,5 61 - 276
08:44 27,8 19,1 5,3 ΝΝΑ 11,1 1010,7 59 - 234
08:49 27,9 19,4 4,7 ΝΝΑ 7,4 1010,7 60 - 79
08:54 27,9 19,7   Άπνοια 3,7 1010,8 61 - 334
08:59 28,1 19,6 0,2 ΝΝΑ 3,7 1010,8 60 - 353
09:04 28,3 19,3 1,4 ΝΝΑ 3,7 1010,8 58 - 93
09:09 28,4 19,3 1,1 ΑΝΑ 3,7 1010,8 58 - 392
09:14 28,7 19,1 3,4 ΑΝΑ 5,6 1010,8 56 - 401
09:19 29,1 19,1   Άπνοια   1010,8 55 - 418
09:24 29,4 19,1 3,5 ΑΝΑ 5,6 1010,9 54 - 429
09:29 29,6 18,1 5,3 ΝΑ 6,4 1010,9 50 - 443
09:34 30,1 16,8 6,0 Ανατολή 14,8 1010,9 45 - 461
09:39 30,4 16,8 5,8 ΒΒΑ 8,0 1010,8 44 - 471
09:44 30,6 17,6 11,7 ΝΑ 14,8 1010,9 46 - 485
09:49 30,6 17,7 6,9 Ανατολή 13,0 1011,1 46 - 494
09:54 30,8 17,1 8,4 ΒΑ 16,7 1011,1 44 - 512
09:59 30,9 17,2 9,0 ΒΑ 14,8 1011,1 44 - 524
10:04 30,9 16,8 5,0 ΒΔ 7,4 1011,0 43 - 529
10:09 31,0 16,9 7,6 ΑΒΑ 13,0 1011,1 43 - 550
10:14 31,2 17,1 5,6 Ανατολή 7,4 1011,1 43 - 557
10:19 31,2 17,1 5,6 Βοράς 16,7 1011,1 43 - 571
10:24 31,2 16,7 8,0 ΒΑ 13,0 1011,1 42 - 587
10:29 31,3 16,4 6,8 ΑΒΑ 18,5 1011,1 41 - 589
10:34 31,4 16,9 9,7 ΑΒΑ 18,5 1011,1 42 - 601
10:39 31,5 16,7 11,6 ΑΒΑ 18,5 1011,2 41 - 617
10:44 31,5 16,3 10,5 ΑΝΑ 12,9 1011,3 40 - 631
10:49 31,6 15,9 6,9 ΑΝΑ 11,1 1011,3 39 - 643
10:54 31,6 15,9 15,4 ΑΒΑ 24,1 1011,2 39 - 652
10:59 31,5 15,9 13,2 ΑΒΑ 20,4 1011,3 39 - 661
11:04 31,5 15,9 14,0 ΑΒΑ 27,8 1011,3 39 - 671
11:09 31,6 15,9 9,3 ΒΑ 18,5 1011,2 39 - 689
11:14 31,8 16,2 7,9 ΝΑ 13,0 1011,2 39 - 691
11:19 31,9 16,2 14,2 Ανατολή 20,4 1011,1 39 - 703
11:24 31,9 16,3 10,8 ΑΝΑ 18,5 1011,2 39 - 705
11:29 32,0 16,3 8,8 ΑΝΑ 16,7 1011,2 39 - 717
11:34 32,1 15,9 6,3 ΝΑ 13,0 1011,3 38 - 724
11:39 32,3 16,2 12,4 ΝΑ 18,5 1011,4 38 - 733
11:44 32,3 15,7 4,5 ΑΝΑ 11,1 1011,4 37 - 745
11:49 32,3 15,8 4,2 Δύση 11,1 1011,4 37 - 747
11:54 32,7 15,7 10,9 ΝΑ 24,1 1011,4 36 - 756
11:59 32,8 15,7 4,0 ΑΒΑ 5,6 1011,4 36 - 766
12:04 32,9 15,4 9,7 Ανατολή 14,8 1011,3 35 - 773
12:09 33,0 15,9 9,7 ΑΝΑ 13,0 1011,3 36 - 789
12:14 33,2 15,7 6,1 ΑΝΑ 9,3 1011,3 35 - 803
12:19 33,1 15,6 7,6 ΑΒΑ 14,8 1011,2 35 - 807
12:24 32,9 15,4 9,5 ΑΝΑ 20,9 1011,4 35 - 816
12:29 32,7 15,7 10,8 ΒΑ 20,4 1011,4 36 - 826
12:34 32,7 15,3 19,3 ΝΝΑ 31,5 1011,5 35 - 835
12:39 32,5 15,5 11,4 ΑΝΑ 24,1 1011,4 36 - 856
12:44 32,7 15,7 11,4 ΑΝΑ 24,1 1011,6 36 - 884
12:49 32,6 16,0 12,9 ΝΑ 16,1 1011,7 37 - 912
12:54 32,3 15,7 10,3 Ανατολή 16,7 1011,7 37 - 202
12:59 32,0 15,1 7,9 ΒΒΑ 14,5 1011,7 36 - 227
13:04 31,8 15,3 9,5 ΔΒΔ 22,2 1011,6 37 - 886
13:09 31,8 15,3 9,5 ΝΝΑ 18,5 1011,7 37 - 183
13:14 31,8 15,3 13,2 ΒΑ 24,1 1011,6 37 - 165
13:19 31,8 15,3 11,3 ΒΒΑ 18,5 1011,5 37 - 884
13:24 32,0 15,1 14,8 ΒΒΑ 25,9 1011,5 36 - 281
13:29 32,0 15,5 13,8 ΒΒΑ 27,8 1011,5 37 - 248
13:34 32,3 15,3 4,2 ΑΝΑ 14,8 1011,7 36 - 165
13:39 32,5 14,6 4,3 ΑΒΑ 6,4 1011,6 34 - 868
13:44 32,8 15,3 11,9 ΒΑ 16,7 1011,7 35 - 847
13:49 32,9 15,9 9,8 Ανατολή 18,5 1011,7 36 - 882
13:54 32,9 15,4 10,6 ΑΒΑ 14,8 1011,8 35 - 865
13:59 33,0 15,9 15,4 Βοράς 29,0 1012,0 36 - 849
14:04 32,8 14,9 13,2 ΒΒΔ 27,8 1012,0 34 - 844
14:09 32,7 15,3 14,6 ΑΒΑ 22,5 1012,0 35 - 844
14:14 32,7 15,7 6,0 ΑΝΑ 7,4 1011,9 36 - 867
14:19 32,7 15,3 11,4 ΑΝΑ 25,9 1012,1 35 - 867
14:24 32,6 15,2 10,8 ΒΑ 14,5 1011,9 35 - 851
14:29 32,7 15,7 13,5 ΑΒΑ 16,7 1012,0 36 - 838
14:34 32,8 15,3 7,7 ΑΒΑ 14,5 1012,0 35 - 835
14:39 32,9 15,4 18,3 ΒΒΑ 19,3 1011,9 35 - 826
14:44 33,1 15,6 12,4 ΒΒΑ 31,5 1012,0 35 - 824
14:49 33,0 15,5 10,3 Ανατολή 24,1 1012,0 35 - 816
14:54 33,2 15,7 10,8 ΒΑ 18,5 1012,1 35 - 810
14:59 33,2 15,7 10,0 ΒΑ 18,5 1012,1 35 - 810
15:04 33,3 15,8 10,0 ΒΒΑ 16,1 1012,0 35 - 812
15:09 33,1 15,6 10,1 ΒΑ 25,9 1011,9 35 - 789
15:14 33,1 16,1 8,4 ΒΒΑ 11,1 1011,9 36 - 795
15:19 33,2 15,2 9,7 ΒΑ 16,7 1011,8 34 - 788
15:24 33,2 16,1 4,2 ΒΒΔ 14,8 1011,8 36 - 775
15:29 33,4 15,4 15,8 Βοράς 24,1 1012,0 34 - 768
15:34 33,2 15,7 12,4 ΑΒΑ 20,4 1012,0 35 - 765
15:39 33,3 15,7 13,5 ΒΒΑ 20,4 1012,0 35 - 751
15:44 33,2 16,1 15,1 ΒΒΑ 27,4 1012,0 36 - 733
15:49 33,2 15,7 12,6 ΑΒΑ 18,5 1012,0 35 - 737
15:54 33,3 15,7 15,3 Ανατολή 20,4 1012,0 35 - 738
15:59 33,2 15,7 10,3 ΒΒΔ 18,5 1011,9 35 - 726
16:04 33,4 15,8 6,9 ΒΒΑ 11,1 1011,9 35 - 719
16:09 33,7 15,6 12,4 ΑΒΑ 22,2 1012,0 34 - 714
16:14 33,6 15,6 15,3 ΒΔ 16,7 1011,9 34 - 715
16:19 33,6 15,6 15,4 ΒΒΑ 22,2 1011,9 34 - 710
16:24 33,6 15,6 7,2 ΑΒΑ 18,5 1011,8 34 - 703
16:29 33,8 15,3 14,0 Βοράς 24,1 1012,0 33 - 703
16:34 33,7 15,7 12,7 Βοράς 22,5 1011,9 34 - 698
16:39 33,8 15,7 12,9 ΑΒΑ 17,7 1011,9 34 - 703

Download your copy of this data-set  here

Our weather-data as stored at Weather Underground. Script developed by Jim McMurry. Προσαρμοσμένος για το πρότυπο του Leuven-Template.eu

Μπορείτε να βρείτε πληροφορίες καιρού μας και σε:

European Weather Network

WeatherCloud

Weather Underground

Δύκτιο Σταθμών Ελλάδας

AWEKAS

HAMweather, WeatherForYou, PWS Weather

MeteoPatras.Eu